Time;durP1;ratioP1;P1;durP2;ratioP2;P2;SDS_P1;SDS_P2;PMS_P1;PMS_P2;Temp;Humidity;BMP_temperature;BMP_pressure;BME280_temperature;BME280_humidity;BME280_pressure;Samples;Min_cycle;Max_cycle;Signal;HPM_P1;HPM_P2
2021/06/13 00:00:47;;;;;;;9.73;3.88;;;15.30;97.20;;;;;;5061855;28;20049;-81
2021/06/13 00:03:14;;;;;;;12.25;4.20;;;15.30;97.50;;;;;;5060601;28;20046;-80
2021/06/13 00:05:43;;;;;;;11.88;4.72;;;15.30;97.70;;;;;;5058012;28;20060;-81
2021/06/13 00:08:09;;;;;;;17.10;4.03;;;15.30;97.90;;;;;;5041083;28;20048;-82
2021/06/13 00:10:36;;;;;;;15.80;5.20;;;15.30;97.50;;;;;;5040896;28;20069;-80
2021/06/13 00:13:03;;;;;;;14.00;4.13;;;15.30;97.70;;;;;;5042272;28;20053;-80
2021/06/13 00:15:30;;;;;;;12.13;3.97;;;15.30;97.80;;;;;;5044321;28;20064;-80
2021/06/13 00:17:57;;;;;;;11.80;4.40;;;15.30;97.80;;;;;;5038968;28;20053;-80
2021/06/13 00:20:28;;;;;;;8.82;4.22;;;15.30;98.00;;;;;;5039538;28;20045;-80
2021/06/13 00:22:55;;;;;;;10.18;4.05;;;15.30;98.50;;;;;;5039022;28;20061;-79
2021/06/13 00:25:23;;;;;;;12.65;3.92;;;15.30;98.20;;;;;;5043257;28;20079;-80
2021/06/13 00:27:50;;;;;;;11.38;4.43;;;15.30;98.20;;;;;;5038941;28;20053;-80
2021/06/13 00:30:18;;;;;;;10.50;4.18;;;15.40;98.50;;;;;;5056823;28;20098;-80
2021/06/13 00:32:45;;;;;;;9.07;4.13;;;15.40;98.80;;;;;;5040341;28;20057;-80
2021/06/13 00:35:13;;;;;;;12.20;4.22;;;15.40;98.60;;;;;;5067448;28;20061;-80
2021/06/13 00:37:40;;;;;;;10.40;3.78;;;15.40;98.60;;;;;;5038583;28;20041;-80
2021/06/13 00:40:08;;;;;;;14.05;4.30;;;15.40;98.30;;;;;;5042434;28;20136;-80
2021/06/13 00:42:37;;;;;;;16.77;4.07;;;15.40;98.10;;;;;;5041491;28;20555;-80
2021/06/13 00:45:08;;;;;;;9.50;3.55;;;15.40;98.40;;;;;;5045003;28;20065;-80
2021/06/13 00:47:35;;;;;;;10.65;4.30;;;15.40;98.30;;;;;;5040170;28;20049;-80
2021/06/13 00:50:03;;;;;;;13.32;4.22;;;15.40;98.20;;;;;;5044331;28;20049;-80
2021/06/13 00:52:30;;;;;;;13.20;4.25;;;15.50;98.80;;;;;;5038797;28;20050;-80
2021/06/13 00:54:57;;;;;;;13.43;4.13;;;15.50;98.90;;;;;;5039017;28;20052;-80
2021/06/13 00:57:24;;;;;;;10.07;4.00;;;15.60;98.80;;;;;;5069160;28;20056;-80
2021/06/13 00:59:50;;;;;;;10.80;3.75;;;15.50;98.80;;;;;;5041670;28;20050;-80
2021/06/13 01:02:18;;;;;;;10.75;4.20;;;15.60;98.90;;;;;;5041916;28;20072;-79
2021/06/13 01:04:44;;;;;;;13.35;4.72;;;15.50;98.40;;;;;;5052766;28;20819;-79
2021/06/13 01:07:24;;;;;;;11.90;4.18;;;15.50;98.70;;;;;;5043613;28;20049;-80
2021/06/13 01:10:01;;;;;;;11.60;4.68;;;15.50;98.10;;;;;;5075579;28;20084;-80
2021/06/13 01:12:36;;;;;;;12.15;5.43;;;15.50;97.60;;;;;;5057638;28;20560;-79
2021/06/13 01:15:08;;;;;;;8.48;3.70;;;15.50;98.00;;;;;;5044569;28;20102;-79
2021/06/13 01:17:59;;;;;;;11.05;4.10;;;15.50;98.00;;;;;;5045378;28;20411;-80
2021/06/13 01:20:28;;;;;;;13.65;4.82;;;15.50;98.00;;;;;;5054714;28;20108;-81
2021/06/13 01:23:01;;;;;;;16.08;4.63;;;15.50;98.10;;;;;;5046531;28;20053;-80
2021/06/13 01:25:55;;;;;;;14.23;3.80;;;15.50;98.40;;;;;;5060279;28;20049;-80
2021/06/13 01:28:46;;;;;;;12.27;4.13;;;15.50;98.60;;;;;;5073161;28;20845;-81
2021/06/13 01:31:13;;;;;;;15.20;3.85;;;15.50;99.00;;;;;;5047045;28;20055;-80
2021/06/13 01:33:41;;;;;;;19.55;5.43;;;15.50;99.50;;;;;;5032511;28;20657;-80
2021/06/13 01:36:09;;;;;;;15.45;4.03;;;15.40;99.80;;;;;;5058403;28;20606;-80
2021/06/13 01:38:37;;;;;;;9.95;3.97;;;15.40;99.90;;;;;;5039760;28;20056;-79
2021/06/13 01:41:08;;;;;;;11.20;4.18;;;15.40;99.90;;;;;;5059498;28;20045;-80
2021/06/13 01:43:36;;;;;;;11.25;4.85;;;15.40;99.90;;;;;;5038457;28;20064;-79
2021/06/13 01:46:06;;;;;;;11.70;4.22;;;15.40;99.90;;;;;;5043589;28;20071;-79
2021/06/13 01:48:38;;;;;;;10.77;4.35;;;15.40;99.90;;;;;;5041970;28;20053;-79
2021/06/13 01:51:06;;;;;;;17.55;4.80;;;15.30;99.90;;;;;;5043822;28;20076;-79
2021/06/13 01:53:41;;;;;;;10.15;4.72;;;15.30;99.90;;;;;;5043756;28;20057;-80
2021/06/13 01:56:13;;;;;;;13.35;4.15;;;15.30;99.90;;;;;;5046189;28;20053;-80
2021/06/13 01:58:44;;;;;;;12.30;5.07;;;15.30;99.90;;;;;;5045447;28;20060;-79
2021/06/13 02:01:13;;;;;;;15.10;4.90;;;15.20;99.90;;;;;;5056661;28;20731;-79
2021/06/13 02:03:47;;;;;;;15.38;4.10;;;15.20;99.90;;;;;;5044734;28;20386;-81
2021/06/13 02:06:17;;;;;;;15.68;4.53;;;15.20;99.90;;;;;;5042173;28;20053;-80
2021/06/13 02:08:45;;;;;;;24.17;5.80;;;15.10;99.90;;;;;;5028182;28;20055;-80
2021/06/13 02:11:13;;;;;;;11.05;4.50;;;15.00;99.90;;;;;;5043362;28;20382;-80
2021/06/13 02:13:43;;;;;;;11.35;4.85;;;14.90;99.90;;;;;;5055126;28;20041;-80
2021/06/13 02:16:11;;;;;;;16.50;5.40;;;14.90;99.90;;;;;;5037412;28;20053;-80
2021/06/13 02:18:38;;;;;;;13.93;5.07;;;14.70;99.90;;;;;;5050042;28;20041;-79
2021/06/13 02:21:08;;;;;;;13.18;4.05;;;14.70;99.90;;;;;;5072381;28;20056;-80
2021/06/13 02:23:36;;;;;;;15.05;5.05;;;14.50;99.90;;;;;;5045772;28;20037;-79
2021/06/13 02:26:04;;;;;;;12.43;4.80;;;14.40;99.90;;;;;;5037449;28;20049;-79
2021/06/13 02:28:35;;;;;;;13.55;4.75;;;14.30;99.90;;;;;;5041729;28;20050;-80
2021/06/13 02:31:03;;;;;;;16.77;5.43;;;14.20;99.90;;;;;;5042550;28;20055;-80
2021/06/13 02:33:32;;;;;;;19.58;5.50;;;14.10;99.90;;;;;;5039731;28;20055;-79
2021/06/13 02:36:00;;;;;;;14.45;5.35;;;13.90;99.90;;;;;;5031249;28;20059;-79
2021/06/13 02:38:27;;;;;;;17.30;5.03;;;13.80;99.90;;;;;;5044028;28;21530;-79
2021/06/13 02:40:54;;;;;;;13.88;5.80;;;13.60;99.90;;;;;;5049246;28;20136;-80
2021/06/13 02:43:21;;;;;;;21.10;5.60;;;13.60;99.90;;;;;;5041778;28;20061;-80
2021/06/13 02:45:49;;;;;;;19.23;5.90;;;13.40;99.90;;;;;;5050899;28;20099;-80
2021/06/13 02:48:17;;;;;;;15.00;5.32;;;13.40;99.90;;;;;;5044388;28;20104;-80
2021/06/13 02:50:47;;;;;;;14.73;5.47;;;13.30;99.90;;;;;;5033915;28;20053;-80
2021/06/13 02:53:44;;;;;;;11.23;5.30;;;13.20;99.90;;;;;;5038125;28;20107;-79
2021/06/13 02:56:23;;;;;;;16.38;5.40;;;13.20;99.90;;;;;;5042190;28;20091;-80
2021/06/13 02:59:09;;;;;;;16.75;6.38;;;13.10;99.90;;;;;;5042063;28;20147;-80
2021/06/13 03:01:41;;;;;;;18.33;5.85;;;13.00;99.90;;;;;;5042620;28;20049;-80
2021/06/13 03:04:10;;;;;;;15.80;5.10;;;13.00;99.90;;;;;;5075776;28;20057;-79
2021/06/13 03:06:38;;;;;;;12.48;5.40;;;12.90;99.90;;;;;;5046047;28;20053;-79
2021/06/13 03:09:05;;;;;;;13.57;6.43;;;12.80;99.90;;;;;;5035673;28;20051;-79
2021/06/13 03:11:31;;;;;;;16.90;5.63;;;12.80;99.90;;;;;;5076136;28;20097;-80
2021/06/13 03:14:00;;;;;;;14.60;5.50;;;12.70;99.90;;;;;;5036988;28;20511;-80
2021/06/13 03:16:28;;;;;;;16.38;6.93;;;12.70;99.90;;;;;;5045224;28;20434;-80
2021/06/13 03:18:55;;;;;;;15.45;6.03;;;12.70;99.90;;;;;;5044147;28;20136;-80
2021/06/13 03:21:23;;;;;;;13.15;5.35;;;12.70;99.90;;;;;;5045146;28;20041;-80
2021/06/13 03:23:51;;;;;;;16.35;5.85;;;12.60;99.90;;;;;;5030942;28;20049;-80
2021/06/13 03:26:19;;;;;;;15.80;6.00;;;12.60;99.90;;;;;;5047683;28;20049;-80
2021/06/13 03:28:52;;;;;;;16.48;4.93;;;12.50;99.90;;;;;;5042666;28;20053;-79
2021/06/13 03:31:20;;;;;;;19.85;6.25;;;12.50;99.90;;;;;;5058792;28;20397;-80
2021/06/13 03:33:52;;;;;;;12.73;5.65;;;12.50;99.90;;;;;;5048941;28;20052;-79
2021/06/13 03:36:21;;;;;;;13.80;5.57;;;12.50;99.90;;;;;;5042568;28;20052;-81
2021/06/13 03:38:49;;;;;;;14.70;6.28;;;12.50;99.90;;;;;;5058321;28;20057;-80
2021/06/13 03:41:21;;;;;;;14.80;6.55;;;12.40;99.90;;;;;;5044779;28;20099;-80
2021/06/13 03:43:50;;;;;;;13.55;5.93;;;12.40;99.90;;;;;;5070410;28;20060;-79
2021/06/13 03:46:17;;;;;;;28.45;6.30;;;12.40;99.90;;;;;;5036373;28;20113;-80
2021/06/13 03:48:47;;;;;;;20.63;6.30;;;12.40;99.90;;;;;;5052871;28;20045;-79
2021/06/13 03:51:14;;;;;;;15.13;5.70;;;12.40;99.90;;;;;;5040354;28;20049;-80
2021/06/13 03:53:47;;;;;;;20.08;5.97;;;12.40;99.90;;;;;;5042272;28;20060;-80
2021/06/13 03:56:17;;;;;;;13.65;6.07;;;12.40;99.90;;;;;;5043784;28;20453;-80
2021/06/13 03:58:45;;;;;;;13.77;5.32;;;12.40;99.90;;;;;;5039519;28;20053;-79
2021/06/13 04:01:14;;;;;;;20.75;5.82;;;12.40;99.90;;;;;;5074916;28;20778;-80
2021/06/13 04:03:46;;;;;;;13.20;5.72;;;12.40;99.90;;;;;;5036159;28;20049;-80
2021/06/13 04:06:14;;;;;;;18.92;5.90;;;12.40;99.90;;;;;;5039546;28;20049;-80
2021/06/13 04:08:44;;;;;;;17.73;6.47;;;12.40;99.90;;;;;;5049451;28;20492;-80
2021/06/13 04:11:12;;;;;;;16.48;6.07;;;12.50;99.90;;;;;;5073072;28;20057;-80
2021/06/13 04:13:40;;;;;;;20.05;5.78;;;12.40;99.90;;;;;;5039804;28;20049;-80
2021/06/13 04:16:08;;;;;;;18.77;6.35;;;12.40;99.90;;;;;;5050575;28;20060;-80
2021/06/13 04:18:36;;;;;;;19.60;7.07;;;12.50;99.90;;;;;;5029192;28;20049;-80
2021/06/13 04:21:08;;;;;;;18.73;6.80;;;12.50;99.90;;;;;;5061784;28;20123;-80
2021/06/13 04:23:36;;;;;;;19.02;5.88;;;12.50;99.90;;;;;;5073999;28;20104;-79
2021/06/13 04:26:03;;;;;;;22.33;5.93;;;12.50;99.90;;;;;;5071590;28;20082;-79
2021/06/13 04:28:32;;;;;;;16.70;6.65;;;12.60;99.90;;;;;;5041396;28;20194;-79
2021/06/13 04:31:01;;;;;;;13.93;5.72;;;12.70;99.90;;;;;;5039282;28;20049;-80
2021/06/13 04:33:33;;;;;;;18.20;5.47;;;12.80;99.90;;;;;;5059991;28;20045;-79
2021/06/13 04:36:00;;;;;;;13.90;5.43;;;13.00;99.90;;;;;;5039073;28;20767;-79
2021/06/13 04:38:28;;;;;;;14.23;5.15;;;13.20;99.90;;;;;;5041760;28;20113;-79
2021/06/13 04:40:54;;;;;;;11.38;5.90;;;13.30;99.90;;;;;;5046230;28;20045;-80
2021/06/13 04:43:21;;;;;;;12.82;5.32;;;13.40;99.90;;;;;;5043461;28;20155;-79
2021/06/13 04:45:48;;;;;;;12.70;5.53;;;13.50;99.90;;;;;;5046697;28;20551;-79
2021/06/13 04:48:17;;;;;;;14.07;5.85;;;13.60;99.90;;;;;;5044227;28;20080;-79
2021/06/13 04:50:44;;;;;;;19.13;6.63;;;13.70;99.90;;;;;;5043962;28;20059;-80
2021/06/13 04:53:31;;;;;;;13.35;5.95;;;13.80;99.90;;;;;;5045478;28;20055;-79
2021/06/13 04:56:06;;;;;;;13.68;5.97;;;13.90;99.90;;;;;;5056868;28;20044;-80
2021/06/13 04:58:33;;;;;;;14.68;5.57;;;14.00;99.90;;;;;;5026840;28;20045;-80
2021/06/13 05:01:00;;;;;;;21.00;5.95;;;14.00;99.90;;;;;;5042497;28;20556;-80
2021/06/13 05:03:26;;;;;;;14.85;5.15;;;14.10;99.90;;;;;;5029666;28;20051;-80
2021/06/13 05:05:53;;;;;;;12.63;6.18;;;14.20;99.90;;;;;;5028018;28;20091;-81
2021/06/13 05:08:20;;;;;;;11.38;5.22;;;14.30;99.90;;;;;;5079878;28;20543;-80
2021/06/13 05:10:47;;;;;;;15.50;5.15;;;14.50;99.90;;;;;;5049060;28;20054;-80
2021/06/13 05:13:18;;;;;;;11.45;4.93;;;14.60;99.90;;;;;;5045186;28;20227;-79
2021/06/13 05:15:45;;;;;;;10.05;4.30;;;14.70;99.90;;;;;;5022824;28;20140;-81
2021/06/13 05:18:11;;;;;;;14.43;4.80;;;14.90;99.90;;;;;;5035894;28;20135;-79
2021/06/13 05:20:40;;;;;;;9.98;4.13;;;15.10;99.90;;;;;;5050558;28;20068;-79
2021/06/13 05:23:07;;;;;;;22.40;8.90;;;15.20;99.90;;;;;;5043961;28;20080;-79
2021/06/13 05:25:36;;;;;;;25.23;6.20;;;15.40;99.90;;;;;;5045578;28;20107;-80
2021/06/13 05:28:06;;;;;;;14.23;4.10;;;15.60;99.90;;;;;;5058675;28;20052;-80
2021/06/13 05:30:35;;;;;;;7.97;4.43;;;15.70;99.90;;;;;;5044476;28;20385;-81
2021/06/13 05:33:03;;;;;;;10.27;5.57;;;15.80;99.90;;;;;;5057847;28;20053;-81
2021/06/13 05:35:30;;;;;;;17.73;5.30;;;15.90;99.90;;;;;;5078776;28;20094;-80
2021/06/13 05:37:57;;;;;;;13.07;4.20;;;15.90;99.90;;;;;;5042716;28;20075;-81
2021/06/13 05:40:24;;;;;;;11.68;4.28;;;16.00;99.90;;;;;;5043602;28;20075;-81
2021/06/13 05:42:52;;;;;;;14.10;4.85;;;16.20;99.90;;;;;;5047360;28;20049;-80
2021/06/13 05:45:20;;;;;;;10.63;4.47;;;16.30;99.90;;;;;;5044970;28;20072;-80
2021/06/13 05:47:47;;;;;;;12.18;4.38;;;16.50;99.90;;;;;;5069610;28;20112;-82
2021/06/13 05:50:15;;;;;;;10.43;3.75;;;16.70;99.90;;;;;;5047234;28;20056;-81
2021/06/13 05:52:42;;;;;;;16.85;4.43;;;16.90;99.90;;;;;;5048735;28;20084;-80
2021/06/13 05:55:11;;;;;;;11.32;4.57;;;17.00;99.90;;;;;;5045469;28;20052;-80
2021/06/13 05:57:38;;;;;;;8.60;4.18;;;17.10;99.90;;;;;;5077249;28;20413;-79
2021/06/13 06:00:09;;;;;;;17.77;4.85;;;17.10;99.90;;;;;;5027444;28;20493;-80
2021/06/13 06:02:37;;;;;;;12.00;4.43;;;17.10;99.90;;;;;;5042688;28;20060;-80
2021/06/13 06:05:05;;;;;;;11.32;4.30;;;17.10;99.90;;;;;;5040763;28;20055;-80
2021/06/13 06:07:33;;;;;;;10.18;4.40;;;17.20;99.90;;;;;;5041148;28;20702;-79
2021/06/13 06:10:00;;;;;;;11.38;4.32;;;17.30;99.90;;;;;;5053803;28;20045;-79
2021/06/13 06:12:27;;;;;;;15.05;4.45;;;17.50;99.90;;;;;;5041585;28;20056;-80
2021/06/13 06:14:54;;;;;;;8.55;3.20;;;17.60;99.90;;;;;;5039630;28;20049;-79
2021/06/13 06:17:21;;;;;;;8.02;3.42;;;17.70;99.90;;;;;;5043151;28;20101;-80
2021/06/13 06:19:48;;;;;;;7.03;3.15;;;17.80;99.70;;;;;;5045838;28;20056;-79
2021/06/13 06:22:15;;;;;;;12.32;4.07;;;17.80;99.40;;;;;;5042455;28;20127;-80
2021/06/13 06:24:42;;;;;;;8.38;2.80;;;17.80;99.00;;;;;;5055826;28;20068;-79
2021/06/13 06:27:10;;;;;;;11.50;3.88;;;17.80;98.40;;;;;;5044501;28;20053;-81
2021/06/13 06:29:37;;;;;;;13.57;4.10;;;17.70;99.40;;;;;;5034007;28;20107;-80
2021/06/13 06:32:04;;;;;;;7.97;3.83;;;17.70;99.80;;;;;;5051283;28;20041;-80
2021/06/13 06:34:30;;;;;;;9.82;4.13;;;17.80;98.80;;;;;;5057603;28;20045;-80
2021/06/13 06:36:57;;;;;;;11.98;3.72;;;17.80;99.10;;;;;;5062924;28;20407;-79
2021/06/13 06:39:24;;;;;;;9.45;3.53;;;17.80;98.60;;;;;;5043795;28;20132;-79
2021/06/13 06:41:51;;;;;;;10.15;3.85;;;17.80;98.70;;;;;;5044062;28;20500;-79
2021/06/13 06:44:18;;;;;;;11.18;3.90;;;17.80;98.10;;;;;;5036926;28;20389;-79
2021/06/13 06:46:45;;;;;;;17.33;4.03;;;17.80;98.30;;;;;;5041201;28;20045;-79
2021/06/13 06:49:12;;;;;;;11.25;5.13;;;17.80;98.60;;;;;;5042120;28;20654;-78
2021/06/13 06:51:38;;;;;;;11.88;4.07;;;17.80;98.50;;;;;;5051158;28;20045;-78
2021/06/13 06:54:05;;;;;;;9.18;3.50;;;17.90;99.00;;;;;;5044631;28;23991;-79
2021/06/13 06:56:33;;;;;;;11.40;4.15;;;18.10;98.20;;;;;;5027021;28;20041;-79
2021/06/13 06:59:00;;;;;;;12.60;3.80;;;18.10;98.30;;;;;;5045573;28;20053;-80
2021/06/13 07:01:27;;;;;;;11.48;3.67;;;18.20;98.00;;;;;;5039457;28;20051;-79
2021/06/13 07:03:54;;;;;;;12.68;4.55;;;18.30;96.90;;;;;;5043169;28;20049;-80
2021/06/13 07:06:21;;;;;;;10.10;3.50;;;18.50;97.60;;;;;;5048331;28;20492;-80
2021/06/13 07:08:48;;;;;;;11.13;4.00;;;18.90;97.00;;;;;;5053271;28;20045;-81
2021/06/13 07:11:14;;;;;;;9.98;3.42;;;19.40;97.50;;;;;;5046334;28;20080;-80
2021/06/13 07:13:44;;;;;;;12.73;4.00;;;19.90;97.00;;;;;;5049920;28;20488;-80
2021/06/13 07:16:11;;;;;;;12.77;3.42;;;20.40;96.50;;;;;;5045204;28;20079;-80
2021/06/13 07:18:39;;;;;;;10.93;3.97;;;20.80;93.80;;;;;;5043995;28;20049;-80
2021/06/13 07:21:06;;;;;;;17.92;4.57;;;20.80;93.60;;;;;;5044399;28;20531;-81
2021/06/13 07:23:34;;;;;;;9.40;3.67;;;20.60;92.80;;;;;;5052880;28;20056;-80
2021/06/13 07:26:01;;;;;;;15.07;3.97;;;20.20;93.10;;;;;;5046391;28;20104;-80
2021/06/13 07:28:31;;;;;;;10.68;3.75;;;19.90;93.40;;;;;;5047337;28;20102;-80
2021/06/13 07:30:59;;;;;;;12.98;3.92;;;19.60;93.70;;;;;;5076735;28;20045;-81
2021/06/13 07:33:28;;;;;;;9.23;3.25;;;19.40;94.10;;;;;;5043800;28;20041;-80
2021/06/13 07:35:55;;;;;;;11.55;3.45;;;19.20;94.00;;;;;;5048873;28;20068;-80
2021/06/13 07:38:22;;;;;;;8.70;3.25;;;19.00;94.50;;;;;;5043157;28;20057;-81
2021/06/13 07:40:49;;;;;;;9.07;3.97;;;18.70;95.00;;;;;;5046939;28;20041;-79
2021/06/13 07:43:19;;;;;;;13.02;4.28;;;18.60;95.40;;;;;;5045784;28;20045;-80
2021/06/13 07:45:46;;;;;;;5.30;3.30;;;18.50;95.90;;;;;;5044354;28;21093;-80
2021/06/13 07:48:13;;;;;;;9.18;4.22;;;18.50;96.30;;;;;;5071120;28;20083;-80
2021/06/13 07:50:42;;;;;;;13.32;3.78;;;18.60;96.70;;;;;;5027562;28;20101;-80
2021/06/13 07:53:10;;;;;;;12.23;4.40;;;18.80;95.80;;;;;;5045079;28;20049;-81
2021/06/13 07:55:37;;;;;;;9.73;4.18;;;19.30;95.40;;;;;;5044945;28;20787;-80
2021/06/13 07:58:05;;;;;;;6.07;2.88;;;19.80;94.60;;;;;;5047587;28;20056;-80
2021/06/13 08:00:32;;;;;;;9.80;3.80;;;20.40;93.00;;;;;;5042854;28;20049;-80
2021/06/13 08:03:00;;;;;;;7.22;3.13;;;21.00;92.70;;;;;;5044180;28;20075;-81
2021/06/13 08:05:28;;;;;;;9.68;3.53;;;21.50;90.60;;;;;;5052387;28;20052;-81
2021/06/13 08:07:57;;;;;;;11.77;4.22;;;21.70;91.20;;;;;;5045854;28;20049;-81
2021/06/13 08:10:25;;;;;;;5.63;3.25;;;21.60;90.40;;;;;;5067166;28;20056;-81
2021/06/13 08:12:54;;;;;;;6.85;3.30;;;21.50;91.10;;;;;;5056393;28;20045;-80
2021/06/13 08:15:22;;;;;;;12.07;3.78;;;21.40;91.50;;;;;;5045084;28;20045;-79
2021/06/13 08:17:49;;;;;;;8.93;3.45;;;21.50;91.60;;;;;;5043418;28;20070;-80
2021/06/13 08:20:18;;;;;;;8.82;3.38;;;21.50;90.90;;;;;;5054529;28;20055;-79
2021/06/13 08:22:45;;;;;;;11.25;3.85;;;21.50;90.70;;;;;;5038740;28;20113;-80
2021/06/13 08:25:13;;;;;;;10.05;3.10;;;21.50;90.40;;;;;;5041787;28;20048;-79
2021/06/13 08:27:40;;;;;;;9.55;3.80;;;21.40;90.50;;;;;;5045213;28;20113;-79
2021/06/13 08:30:10;;;;;;;7.13;3.08;;;21.30;88.80;;;;;;5044780;28;20601;-79
2021/06/13 08:32:38;;;;;;;13.10;3.92;;;21.10;90.80;;;;;;5040317;28;20052;-79
2021/06/13 08:35:06;;;;;;;9.38;3.60;;;21.00;90.50;;;;;;5042537;28;20503;-80
2021/06/13 08:37:33;;;;;;;8.90;3.53;;;21.00;90.00;;;;;;5053249;28;20065;-79
2021/06/13 08:40:08;;;;;;;6.90;2.97;;;21.00;89.60;;;;;;5042539;28;20403;-79
2021/06/13 08:42:37;;;;;;;8.68;3.60;;;21.10;87.70;;;;;;5050473;28;20485;-80
2021/06/13 08:45:06;;;;;;;8.90;3.20;;;21.20;88.10;;;;;;5043546;28;20048;-79
2021/06/13 08:47:34;;;;;;;9.02;3.20;;;21.40;87.70;;;;;;5039990;28;20057;-80
2021/06/13 08:50:01;;;;;;;8.63;3.10;;;21.50;84.20;;;;;;5043708;28;20061;-80
2021/06/13 08:52:28;;;;;;;9.20;3.35;;;21.50;86.20;;;;;;5073736;28;20503;-80
2021/06/13 08:54:55;;;;;;;5.60;2.92;;;21.60;84.90;;;;;;5044093;28;20081;-79
2021/06/13 08:57:21;;;;;;;9.70;3.38;;;21.80;79.50;;;;;;5041683;28;20041;-80
2021/06/13 08:59:48;;;;;;;9.52;2.90;;;21.90;83.60;;;;;;5054559;28;20110;-79
2021/06/13 09:02:16;;;;;;;6.30;2.95;;;22.20;85.20;;;;;;5042557;28;20053;-80
2021/06/13 09:04:42;;;;;;;9.00;3.60;;;22.60;82.10;;;;;;5040785;28;20049;-80
2021/06/13 09:07:30;;;;;;;6.72;2.72;;;22.50;80.40;;;;;;5043722;28;20057;-80
2021/06/13 09:10:10;;;;;;;7.10;2.75;;;22.30;78.10;;;;;;5038730;28;20486;-80
2021/06/13 09:12:37;;;;;;;13.73;4.38;;;22.10;79.90;;;;;;5043114;28;20037;-79
2021/06/13 09:15:06;;;;;;;11.63;3.13;;;21.90;81.90;;;;;;5040020;28;20063;-80
2021/06/13 09:17:38;;;;;;;8.40;3.38;;;22.10;81.30;;;;;;5040024;28;20128;-80
2021/06/13 09:20:20;;;;;;;7.75;2.80;;;22.40;83.10;;;;;;5044400;28;20072;-80
2021/06/13 09:23:11;;;;;;;9.82;3.30;;;22.90;79.90;;;;;;5043922;28;20484;-80
2021/06/13 09:25:41;;;;;;;7.28;3.75;;;23.40;78.30;;;;;;5044791;28;20045;-80
2021/06/13 09:28:19;;;;;;;9.48;2.88;;;23.40;79.00;;;;;;5050453;28;20065;-80
2021/06/13 09:30:51;;;;;;;8.73;3.22;;;23.20;78.10;;;;;;5043496;28;20065;-80
2021/06/13 09:33:33;;;;;;;9.02;3.50;;;22.90;79.30;;;;;;5046667;28;20147;-80
2021/06/13 09:36:04;;;;;;;8.23;3.03;;;22.70;80.70;;;;;;5061449;28;20064;-80
2021/06/13 09:38:37;;;;;;;7.60;3.35;;;22.70;78.60;;;;;;5049331;28;20056;-81
2021/06/13 09:41:07;;;;;;;7.43;3.55;;;22.80;76.90;;;;;;5048529;28;20051;-81
2021/06/13 09:43:47;;;;;;;9.23;3.15;;;22.70;78.80;;;;;;5044202;28;20096;-79
2021/06/13 09:46:20;;;;;;;9.80;3.30;;;22.70;80.80;;;;;;5047178;28;20132;-79
2021/06/13 09:48:52;;;;;;;9.20;2.92;;;22.90;80.20;;;;;;5074953;28;20047;-79
2021/06/13 09:51:24;;;;;;;6.88;3.08;;;23.00;78.90;;;;;;5046674;28;20602;-80
2021/06/13 09:53:56;;;;;;;4.25;2.63;;;23.20;77.20;;;;;;5046496;28;20052;-80
2021/06/13 09:56:26;;;;;;;9.95;3.17;;;23.30;79.20;;;;;;5060764;28;20140;-80
2021/06/13 09:58:57;;;;;;;8.73;2.95;;;23.40;79.40;;;;;;5041166;28;20556;-80
2021/06/13 10:01:29;;;;;;;5.97;2.60;;;23.80;80.10;;;;;;5062795;28;20568;-80
2021/06/13 10:03:58;;;;;;;9.05;3.70;;;24.00;77.20;;;;;;5042070;28;20121;-80
2021/06/13 10:06:29;;;;;;;8.95;2.83;;;24.30;74.50;;;;;;5044180;28;20161;-80
2021/06/13 10:08:56;;;;;;;6.38;2.85;;;24.50;73.90;;;;;;5042661;28;20045;-80
2021/06/13 10:11:24;;;;;;;5.15;2.60;;;24.40;72.50;;;;;;5050865;28;20044;-80
2021/06/13 10:13:55;;;;;;;5.72;3.17;;;24.10;72.40;;;;;;5041224;28;20050;-80
2021/06/13 10:16:34;;;;;;;7.10;2.60;;;23.90;74.80;;;;;;5050298;28;20041;-80
2021/06/13 10:19:07;;;;;;;6.00;2.78;;;24.00;73.80;;;;;;5046170;28;20583;-81
2021/06/13 10:21:39;;;;;;;9.93;2.95;;;24.20;73.30;;;;;;5079380;28;20056;-80
2021/06/13 10:24:12;;;;;;;9.18;3.20;;;24.30;72.90;;;;;;5047502;28;20057;-79
2021/06/13 10:26:42;;;;;;;9.03;3.20;;;24.30;76.30;;;;;;5045127;28;20051;-80
2021/06/13 10:29:09;;;;;;;8.60;2.80;;;24.40;72.50;;;;;;5052176;28;20063;-80
2021/06/13 10:31:37;;;;;;;9.45;3.40;;;24.40;72.30;;;;;;5041892;28;20044;-80
2021/06/13 10:34:04;;;;;;;22.42;3.20;;;24.40;72.40;;;;;;5045452;28;20041;-80
2021/06/13 10:36:33;;;;;;;6.65;2.90;;;24.60;74.30;;;;;;5050674;28;20064;-80
2021/06/13 10:39:01;;;;;;;8.27;2.78;;;24.60;74.00;;;;;;5044708;28;20076;-80
2021/06/13 10:41:28;;;;;;;8.30;2.58;;;24.70;71.30;;;;;;5075436;28;20055;-80
2021/06/13 10:43:59;;;;;;;5.22;2.45;;;24.70;71.90;;;;;;5047328;28;20423;-80
2021/06/13 10:46:28;;;;;;;4.80;2.10;;;24.80;69.00;;;;;;5045991;28;22788;-80
2021/06/13 10:48:58;;;;;;;5.15;2.70;;;24.90;69.90;;;;;;5045473;28;20093;-80
2021/06/13 10:51:36;;;;;;;9.25;2.95;;;24.90;67.50;;;;;;5054681;28;20080;-81
2021/06/13 10:54:25;;;;;;;5.30;2.40;;;25.00;68.90;;;;;;5047662;28;20052;-80
2021/06/13 10:57:02;;;;;;;7.57;2.65;;;25.10;72.20;;;;;;5043463;28;20488;-80
2021/06/13 10:59:34;;;;;;;4.35;2.20;;;25.20;66.50;;;;;;5059306;28;20081;-80
2021/06/13 11:02:08;;;;;;;8.43;2.90;;;25.10;67.90;;;;;;5040816;28;20053;-81
2021/06/13 11:05:01;;;;;;;7.25;2.42;;;25.00;67.80;;;;;;5040296;28;20042;-80
2021/06/13 11:07:35;;;;;;;9.23;2.78;;;24.80;64.40;;;;;;5041332;28;20048;-80
2021/06/13 11:10:05;;;;;;;6.85;2.33;;;24.60;68.90;;;;;;5052394;28;20051;-82
2021/06/13 11:12:59;;;;;;;6.93;2.15;;;24.80;66.80;;;;;;5058932;28;20120;-80
2021/06/13 11:15:31;;;;;;;6.05;2.58;;;25.10;65.80;;;;;;5040255;28;20057;-80
2021/06/13 11:18:02;;;;;;;10.82;2.70;;;25.40;70.50;;;;;;5057873;28;20049;-80
2021/06/13 11:22:58;;;;;;;5.10;2.50;;;26.00;68.80;;;;;;5043636;28;20060;-80
2021/06/13 11:25:27;;;;;;;9.82;2.55;;;26.30;65.50;;;;;;5059928;28;20055;-81
2021/06/13 11:28:10;;;;;;;7.85;2.45;;;26.40;65.30;;;;;;5039933;28;20049;-80
2021/06/13 11:30:41;;;;;;;6.68;2.40;;;26.50;64.20;;;;;;5076142;28;20103;-80
2021/06/13 11:33:09;;;;;;;3.08;2.17;;;26.90;65.30;;;;;;5058950;28;20077;-81
2021/06/13 11:35:43;;;;;;;7.18;2.47;;;27.10;63.80;;;;;;5039555;28;20061;-80
2021/06/13 11:38:13;;;;;;;3.97;2.38;;;27.40;60.90;;;;;;5047405;28;20053;-81
2021/06/13 11:41:05;;;;;;;6.15;2.40;;;27.70;60.20;;;;;;5056682;28;20073;-80
2021/06/13 11:43:42;;;;;;;6.57;2.08;;;28.00;62.80;;;;;;5046878;28;20069;-81
2021/06/13 11:46:10;;;;;;;11.95;2.47;;;28.50;57.90;;;;;;5061591;28;20049;-81
2021/06/13 11:48:49;;;;;;;5.20;2.50;;;28.60;56.90;;;;;;5043800;28;20076;-80
2021/06/13 11:51:17;;;;;;;5.03;2.15;;;28.80;53.80;;;;;;5039182;28;20044;-81
2021/06/13 11:54:00;;;;;;;8.93;3.17;;;28.80;52.50;;;;;;5042480;28;20053;-81
2021/06/13 11:56:44;;;;;;;6.63;2.53;;;28.70;51.80;;;;;;5041159;28;20041;-81
2021/06/13 11:59:15;;;;;;;4.35;2.00;;;28.60;54.70;;;;;;5044243;28;20049;-81
2021/06/13 12:01:47;;;;;;;4.80;2.35;;;28.80;54.60;;;;;;5061729;28;20045;-81
2021/06/13 12:04:15;;;;;;;3.50;2.10;;;29.40;50.70;;;;;;5046146;28;20053;-81
2021/06/13 12:06:43;;;;;;;3.47;1.90;;;29.70;49.30;;;;;;5051218;28;20072;-81
2021/06/13 12:09:16;;;;;;;6.50;1.98;;;30.10;50.90;;;;;;5044190;28;20052;-81
2021/06/13 12:11:56;;;;;;;6.13;2.30;;;30.50;49.30;;;;;;5038115;28;20079;-80
2021/06/13 12:14:26;;;;;;;11.07;2.08;;;30.90;48.20;;;;;;5050379;28;20044;-81
2021/06/13 12:17:22;;;;;;;3.03;1.77;;;31.50;46.80;;;;;;5044766;28;20127;-81
2021/06/13 12:19:59;;;;;;;3.90;1.98;;;32.10;44.30;;;;;;5050430;28;20049;-81
2021/06/13 12:22:52;;;;;;;4.05;2.08;;;32.70;45.50;;;;;;5030136;28;20056;-81
2021/06/13 12:28:13;;;;;;;9.35;2.25;;;33.80;42.10;;;;;;5033449;28;20134;-81
2021/06/13 12:30:41;;;;;;;1.98;1.40;;;34.10;44.30;;;;;;5054682;28;20047;-81
2021/06/13 12:33:12;;;;;;;2.78;1.92;;;34.40;44.70;;;;;;5054741;28;20051;-81
2021/06/13 12:35:47;;;;;;;4.88;1.80;;;34.70;42.40;;;;;;5055232;28;20143;-80
2021/06/13 12:38:26;;;;;;;4.30;2.90;;;35.10;42.00;;;;;;5042324;28;20140;-81
2021/06/13 12:40:57;;;;;;;3.38;2.33;;;35.50;41.40;;;;;;5044436;28;20041;-81
2021/06/13 12:43:43;;;;;;;3.67;1.67;;;35.90;43.40;;;;;;5058788;28;20045;-81
2021/06/13 12:46:14;;;;;;;3.58;1.67;;;36.30;40.70;;;;;;5036239;28;20107;-81
2021/06/13 12:48:42;;;;;;;3.20;1.70;;;36.40;42.00;;;;;;5041280;28;20103;-81
2021/06/13 12:51:09;;;;;;;4.40;1.70;;;36.50;40.30;;;;;;5042367;28;20136;-81
2021/06/13 12:53:48;;;;;;;3.38;1.67;;;36.70;42.60;;;;;;5037476;28;20059;-81
2021/06/13 12:56:15;;;;;;;3.10;1.55;;;37.30;42.40;;;;;;5048201;28;20049;-81
2021/06/13 12:58:45;;;;;;;5.43;1.98;;;37.80;38.90;;;;;;5039486;28;20068;-81
2021/06/13 13:01:13;;;;;;;2.83;1.80;;;37.80;42.10;;;;;;5051600;28;20072;-81